Time;durP1;ratioP1;P1;durP2;ratioP2;P2;SDS_P1;SDS_P2;PMS_P1;PMS_P2;Temp;Humidity;BMP_temperature;BMP_pressure;BME280_temperature;BME280_humidity;BME280_pressure;Samples;Min_cycle;Max_cycle;Signal;HPM_P1;HPM_P2
2022/07/14 00:01:41;;;;;;;;;;;23.20;88.20;;;;;;5093756;28;19938;-60
2022/07/14 00:04:07;;;;;;;;;;;23.20;88.20;;;;;;5094091;28;19912;-60
2022/07/14 00:06:33;;;;;;;;;;;23.20;88.20;;;;;;5094300;28;19916;-60
2022/07/14 00:08:59;;;;;;;;;;;23.20;88.20;;;;;;5094049;28;19912;-60
2022/07/14 00:11:24;;;;;;;;;;;23.20;88.20;;;;;;5094471;28;19916;-60
2022/07/14 00:13:50;;;;;;;;;;;23.20;88.20;;;;;;5093750;28;19912;-60
2022/07/14 00:16:16;;;;;;;;;;;23.20;88.10;;;;;;5093721;28;19908;-60
2022/07/14 00:18:44;;;;;;;;;;;23.20;88.10;;;;;;5094040;28;19908;-60
2022/07/14 00:21:10;;;;;;;;;;;23.20;88.10;;;;;;5094023;28;19934;-60
2022/07/14 00:23:35;;;;;;;;;;;23.20;88.20;;;;;;5093975;28;20325;-60
2022/07/14 00:26:02;;;;;;;;;;;23.20;88.10;;;;;;5093592;28;19959;-60
2022/07/14 00:28:28;;;;;;;;;;;23.20;88.10;;;;;;5093937;28;19919;-61
2022/07/14 00:30:53;;;;;;;;;;;23.20;88.10;;;;;;5093640;28;19912;-60
2022/07/14 00:33:19;;;;;;;;;;;23.20;88.10;;;;;;5093877;28;19915;-60
2022/07/14 00:35:45;;;;;;;;;;;23.20;88.10;;;;;;5094202;28;19943;-60
2022/07/14 00:38:11;;;;;;;;;;;23.20;88.10;;;;;;5075746;28;19915;-60
2022/07/14 00:40:36;;;;;;;;;;;23.20;88.10;;;;;;5093816;28;19912;-60
2022/07/14 00:43:03;;;;;;;;;;;23.20;88.10;;;;;;5093485;28;20359;-60
2022/07/14 00:45:28;;;;;;;;;;;23.20;88.10;;;;;;5093515;28;20222;-60
2022/07/14 00:47:54;;;;;;;;;;;23.20;88.10;;;;;;5093424;28;19912;-60
2022/07/14 00:50:19;;;;;;;;;;;23.20;88.10;;;;;;5093690;28;20366;-60
2022/07/14 00:52:46;;;;;;;;;;;23.20;88.60;;;;;;5093649;28;19999;-60
2022/07/14 00:55:12;;;;;;;;;;;23.20;88.10;;;;;;5095502;28;19971;-60
2022/07/14 00:57:38;;;;;;;;;;;23.20;88.10;;;;;;5097193;28;19920;-60
2022/07/14 01:00:05;;;;;;;;;;;23.20;88.10;;;;;;5097347;28;19915;-60
2022/07/14 01:02:30;;;;;;;;;;;23.20;88.60;;;;;;5096877;28;19912;-60
2022/07/14 01:04:56;;;;;;;;;;;23.20;88.10;;;;;;5096904;28;19908;-60
2022/07/14 01:07:21;;;;;;;;;;;23.20;88.10;;;;;;5096841;28;20337;-60
2022/07/14 01:09:47;;;;;;;;;;;23.20;88.00;;;;;;5097076;28;19965;-60
2022/07/14 01:12:12;;;;;;;;;;;23.20;88.10;;;;;;5096677;28;19908;-60
2022/07/14 01:14:38;;;;;;;;;;;23.20;88.10;;;;;;5096670;28;20259;-60
2022/07/14 01:17:05;;;;;;;;;;;23.20;88.10;;;;;;5096980;28;19934;-60
2022/07/14 01:19:31;;;;;;;;;;;23.20;88.10;;;;;;5096947;28;20339;-60
2022/07/14 01:21:57;;;;;;;;;;;23.20;88.00;;;;;;5096518;28;19919;-60
2022/07/14 01:24:23;;;;;;;;;;;23.20;88.10;;;;;;5096892;28;19947;-60
2022/07/14 01:26:48;;;;;;;;;;;23.20;88.00;;;;;;5096742;28;19937;-60
2022/07/14 01:29:14;;;;;;;;;;;23.20;88.10;;;;;;5096642;28;19912;-60
2022/07/14 01:31:40;;;;;;;;;;;23.20;88.10;;;;;;5096669;28;19915;-60
2022/07/14 01:34:05;;;;;;;;;;;23.20;88.10;;;;;;5096907;28;19908;-60
2022/07/14 01:36:31;;;;;;;;;;;23.20;88.10;;;;;;5096336;28;19908;-60
2022/07/14 01:38:57;;;;;;;;;;;23.20;88.10;;;;;;5096288;28;19908;-60
2022/07/14 01:41:23;;;;;;;;;;;23.20;88.00;;;;;;5096541;28;19912;-60
2022/07/14 01:43:48;;;;;;;;;;;23.20;88.00;;;;;;5078383;28;20358;-60
2022/07/14 01:46:14;;;;;;;;;;;23.20;88.00;;;;;;5095991;28;20342;-60
2022/07/14 01:48:41;;;;;;;;;;;23.20;88.00;;;;;;5096348;28;19999;-60
2022/07/14 01:51:06;;;;;;;;;;;23.20;88.10;;;;;;5096021;28;19912;-60
2022/07/14 01:53:32;;;;;;;;;;;23.20;88.10;;;;;;5096209;28;19915;-60
2022/07/14 01:55:58;;;;;;;;;;;23.20;88.00;;;;;;5096224;28;19908;-61
2022/07/14 01:58:23;;;;;;;;;;;23.20;88.10;;;;;;5096325;28;19920;-60
2022/07/14 02:01:39;;;;;;;;;;;23.20;88.10;;;;;;5096489;28;19982;-60
2022/07/14 02:03:34;;;;;;;;;;;23.20;88.10;;;;;;5095553;28;19908;-60
2022/07/14 02:06:00;;;;;;;;;;;23.20;88.10;;;;;;5094846;28;19908;-60
2022/07/14 02:08:26;;;;;;;;;;;23.20;88.10;;;;;;5095481;28;19919;-60
2022/07/14 02:13:36;;;;;;;;;;;23.20;88.00;;;;;;5095594;28;20053;-60
2022/07/14 02:16:01;;;;;;;;;;;23.20;88.00;;;;;;5077655;28;19951;-60
2022/07/14 02:18:27;;;;;;;;;;;23.30;88.10;;;;;;5095540;28;19916;-60
2022/07/14 02:20:52;;;;;;;;;;;23.20;88.10;;;;;;5077584;28;20003;-60
2022/07/14 02:23:18;;;;;;;;;;;23.20;88.10;;;;;;5095624;28;19971;-60
2022/07/14 02:25:43;;;;;;;;;;;23.20;88.10;;;;;;5095660;28;20359;-60
2022/07/14 02:28:09;;;;;;;;;;;23.20;88.10;;;;;;5095275;28;20022;-60
2022/07/14 02:30:34;;;;;;;;;;;23.20;88.10;;;;;;5095845;28;19912;-60
2022/07/14 02:33:00;;;;;;;;;;;23.20;88.10;;;;;;5095820;28;19912;-60
2022/07/14 02:35:26;;;;;;;;;;;23.20;88.10;;;;;;5095125;28;19908;-60
2022/07/14 02:37:52;;;;;;;;;;;23.20;88.10;;;;;;5095158;28;19995;-60
2022/07/14 02:40:17;;;;;;;;;;;23.20;88.10;;;;;;5095056;28;20008;-60
2022/07/14 02:42:43;;;;;;;;;;;23.20;88.00;;;;;;5095294;28;19915;-60
2022/07/14 02:45:08;;;;;;;;;;;23.20;88.00;;;;;;5095251;28;20006;-60
2022/07/14 02:47:34;;;;;;;;;;;23.20;88.10;;;;;;5094841;28;20359;-60
2022/07/14 02:49:59;;;;;;;;;;;23.30;88.10;;;;;;5094835;28;20358;-60
2022/07/14 02:52:25;;;;;;;;;;;23.20;88.10;;;;;;5095025;28;19908;-60
2022/07/14 02:54:50;;;;;;;;;;;23.20;88.00;;;;;;5094772;28;20034;-60
2022/07/14 02:57:16;;;;;;;;;;;23.20;88.00;;;;;;5094526;28;20041;-60
2022/07/14 02:59:42;;;;;;;;;;;23.20;88.10;;;;;;5094784;28;19908;-60
2022/07/14 03:02:08;;;;;;;;;;;23.20;88.10;;;;;;5095200;28;19915;-60
2022/07/14 03:04:33;;;;;;;;;;;23.20;88.10;;;;;;5094537;28;19920;-60
2022/07/14 03:06:59;;;;;;;;;;;23.20;88.00;;;;;;5094673;28;19916;-60
2022/07/14 03:09:25;;;;;;;;;;;23.20;88.10;;;;;;5094488;28;19912;-60
2022/07/14 03:11:50;;;;;;;;;;;23.20;88.10;;;;;;5094429;28;19915;-60
2022/07/14 03:14:16;;;;;;;;;;;23.20;88.60;;;;;;5094534;28;19908;-60
2022/07/14 03:16:41;;;;;;;;;;;23.20;88.00;;;;;;5094693;28;19916;-60
2022/07/14 03:19:07;;;;;;;;;;;23.30;88.10;;;;;;5094688;28;20308;-60
2022/07/14 03:21:32;;;;;;;;;;;23.20;88.10;;;;;;5076542;28;19912;-60
2022/07/14 03:23:58;;;;;;;;;;;23.20;88.10;;;;;;5094547;28;19966;-60
2022/07/14 03:26:23;;;;;;;;;;;23.20;88.10;;;;;;5094182;28;20385;-60
2022/07/14 03:28:49;;;;;;;;;;;23.20;88.10;;;;;;5094418;28;19919;-60
2022/07/14 03:31:14;;;;;;;;;;;23.20;88.10;;;;;;5094412;28;19949;-60
2022/07/14 03:33:40;;;;;;;;;;;23.30;88.10;;;;;;5093921;28;19915;-60
2022/07/14 03:36:05;;;;;;;;;;;23.20;88.10;;;;;;5094207;28;19908;-60
2022/07/14 03:38:31;;;;;;;;;;;23.20;88.10;;;;;;5094075;28;19953;-60
2022/07/14 03:40:56;;;;;;;;;;;23.20;88.00;;;;;;5094025;28;19915;-60
2022/07/14 03:43:22;;;;;;;;;;;23.30;88.10;;;;;;5093827;28;19944;-60
2022/07/14 03:45:47;;;;;;;;;;;23.30;88.10;;;;;;5093899;28;19957;-60
2022/07/14 03:48:13;;;;;;;;;;;23.20;88.10;;;;;;5094069;28;19912;-60
2022/07/14 03:50:38;;;;;;;;;;;23.30;88.10;;;;;;5094470;28;19913;-57
2022/07/14 03:53:04;;;;;;;;;;;23.20;88.00;;;;;;5093838;28;20003;-59
2022/07/14 03:55:31;;;;;;;;;;;23.30;88.10;;;;;;5093863;28;19961;-59
2022/07/14 03:57:56;;;;;;;;;;;23.30;88.10;;;;;;5093771;28;19920;-58
2022/07/14 04:00:22;;;;;;;;;;;23.20;88.10;;;;;;5093880;28;20282;-58
2022/07/14 04:02:47;;;;;;;;;;;23.20;88.10;;;;;;5075756;28;19908;-59
2022/07/14 04:05:13;;;;;;;;;;;23.20;88.00;;;;;;5093614;28;19909;-59
2022/07/14 04:07:39;;;;;;;;;;;23.30;88.20;;;;;;5093897;28;20342;-59
2022/07/14 04:10:04;;;;;;;;;;;23.20;88.10;;;;;;5093949;28;19916;-59
2022/07/14 04:12:30;;;;;;;;;;;23.30;88.20;;;;;;5093943;28;20313;-59
2022/07/14 04:14:55;;;;;;;;;;;23.30;88.20;;;;;;5094176;28;19908;-59
2022/07/14 04:17:21;;;;;;;;;;;23.30;88.20;;;;;;5093915;28;19912;-59
2022/07/14 04:19:46;;;;;;;;;;;23.30;88.20;;;;;;5093808;28;20442;-59
2022/07/14 04:22:12;;;;;;;;;;;23.30;88.70;;;;;;5093562;28;19998;-59
2022/07/14 04:24:37;;;;;;;;;;;23.30;88.60;;;;;;5093507;28;19908;-59
2022/07/14 04:27:03;;;;;;;;;;;23.30;88.10;;;;;;5093359;28;19935;-59
2022/07/14 04:29:28;;;;;;;;;;;23.30;88.10;;;;;;5093777;28;19912;-59
2022/07/14 04:31:54;;;;;;;;;;;23.30;88.10;;;;;;5097654;28;19915;-59
2022/07/14 04:34:19;;;;;;;;;;;23.30;88.10;;;;;;5079120;28;19908;-59
2022/07/14 04:36:45;;;;;;;;;;;23.30;88.10;;;;;;5079577;28;19912;-59
2022/07/14 04:39:10;;;;;;;;;;;23.30;88.10;;;;;;5097375;28;19954;-59
2022/07/14 04:41:36;;;;;;;;;;;23.30;88.10;;;;;;5097065;28;19998;-59
2022/07/14 04:44:02;;;;;;;;;;;23.30;88.10;;;;;;5096920;28;19916;-59
2022/07/14 04:46:27;;;;;;;;;;;23.30;88.00;;;;;;5078710;28;19961;-59
2022/07/14 04:54:21;;;;;;;;;;;23.30;87.90;;;;;;5096792;28;19915;-59
2022/07/14 04:56:46;;;;;;;;;;;23.40;88.00;;;;;;5096598;28;19915;-60
2022/07/14 04:59:12;;;;;;;;;;;23.40;88.10;;;;;;5096653;28;20010;-60
2022/07/14 05:01:37;;;;;;;;;;;23.30;88.00;;;;;;5096960;28;20316;-60
2022/07/14 05:04:03;;;;;;;;;;;23.30;88.00;;;;;;5078889;28;19915;-60
2022/07/14 05:06:28;;;;;;;;;;;23.40;88.60;;;;;;5096963;28;20334;-60
2022/07/14 05:08:54;;;;;;;;;;;23.30;88.00;;;;;;5096939;28;20323;-60
2022/07/14 05:11:19;;;;;;;;;;;23.40;88.10;;;;;;5078639;28;19908;-60
2022/07/14 05:13:45;;;;;;;;;;;23.30;88.00;;;;;;5096232;28;19912;-60
2022/07/14 05:16:10;;;;;;;;;;;23.30;88.00;;;;;;5096524;28;19915;-60
2022/07/14 05:18:36;;;;;;;;;;;23.30;88.00;;;;;;5096238;28;19915;-60
2022/07/14 05:21:01;;;;;;;;;;;23.30;88.00;;;;;;5096474;28;19908;-60
2022/07/14 05:23:27;;;;;;;;;;;23.30;88.00;;;;;;5096749;28;20305;-60
2022/07/14 05:25:54;;;;;;;;;;;23.40;88.00;;;;;;5096302;28;19931;-60
2022/07/14 05:28:19;;;;;;;;;;;23.30;88.00;;;;;;5096439;28;19919;-60
2022/07/14 05:30:45;;;;;;;;;;;23.30;88.00;;;;;;5096264;28;19912;-60
2022/07/14 05:33:10;;;;;;;;;;;23.40;88.10;;;;;;5095914;28;19908;-60
2022/07/14 05:35:36;;;;;;;;;;;23.40;88.10;;;;;;5095946;28;19959;-60
2022/07/14 05:38:01;;;;;;;;;;;23.30;88.00;;;;;;5095994;28;19915;-60
2022/07/14 05:40:27;;;;;;;;;;;23.30;88.00;;;;;;5095559;28;19912;-60
2022/07/14 05:42:52;;;;;;;;;;;23.40;88.10;;;;;;5095744;28;19908;-60
2022/07/14 05:45:18;;;;;;;;;;;23.40;88.00;;;;;;5095793;28;19953;-60
2022/07/14 05:47:43;;;;;;;;;;;23.40;88.00;;;;;;5077809;28;19911;-60
2022/07/14 05:50:09;;;;;;;;;;;23.40;88.00;;;;;;5095644;28;19918;-60
2022/07/14 05:52:34;;;;;;;;;;;23.40;88.00;;;;;;5095819;28;19915;-60
2022/07/14 05:55:00;;;;;;;;;;;23.30;88.00;;;;;;5095398;28;19915;-60
2022/07/14 05:57:26;;;;;;;;;;;23.40;88.10;;;;;;5095487;28;19912;-60
2022/07/14 05:59:51;;;;;;;;;;;23.40;88.10;;;;;;5095699;28;19912;-60
2022/07/14 06:02:17;;;;;;;;;;;23.40;88.10;;;;;;5077628;28;20264;-60
2022/07/14 06:04:42;;;;;;;;;;;23.40;88.00;;;;;;5095234;28;19916;-60
2022/07/14 06:07:09;;;;;;;;;;;23.40;88.00;;;;;;5095674;28;20018;-60
2022/07/14 06:09:38;;;;;;;;;;;23.40;88.20;;;;;;5095246;28;20286;-60
2022/07/14 06:12:07;;;;;;;;;;;23.40;88.10;;;;;;5095392;28;19947;-59
2022/07/14 06:14:33;;;;;;;;;;;23.40;88.10;;;;;;5095173;28;19948;-60
2022/07/14 06:16:58;;;;;;;;;;;23.40;88.20;;;;;;5094770;28;19908;-60
2022/07/14 06:19:24;;;;;;;;;;;23.40;88.10;;;;;;5094907;28;19908;-60
2022/07/14 06:21:49;;;;;;;;;;;23.40;88.10;;;;;;5094881;28;19908;-59
2022/07/14 06:24:15;;;;;;;;;;;23.40;88.10;;;;;;5094836;28;19960;-59
2022/07/14 06:26:40;;;;;;;;;;;23.40;88.20;;;;;;5094659;28;19935;-60
2022/07/14 06:29:06;;;;;;;;;;;23.40;88.10;;;;;;5094856;28;20393;-60
2022/07/14 06:31:34;;;;;;;;;;;23.40;88.00;;;;;;5094960;28;19922;-60
2022/07/14 06:34:00;;;;;;;;;;;23.40;88.00;;;;;;5094819;28;20350;-60
2022/07/14 06:36:25;;;;;;;;;;;23.40;88.10;;;;;;5094906;28;19909;-60
2022/07/14 06:38:51;;;;;;;;;;;23.40;88.00;;;;;;5076695;28;19915;-59
2022/07/14 06:41:19;;;;;;;;;;;23.40;88.10;;;;;;5094598;28;20275;-60
2022/07/14 06:43:44;;;;;;;;;;;23.40;88.10;;;;;;5094502;28;19915;-60
2022/07/14 06:46:12;;;;;;;;;;;23.40;88.10;;;;;;5076260;28;19908;-60
2022/07/14 06:48:38;;;;;;;;;;;23.40;88.10;;;;;;5094918;28;20411;-60
2022/07/14 06:51:03;;;;;;;;;;;23.40;88.10;;;;;;5095187;28;19912;-60
2022/07/14 06:53:29;;;;;;;;;;;23.40;88.20;;;;;;5093994;28;20271;-60
2022/07/14 06:55:54;;;;;;;;;;;23.40;88.20;;;;;;5076463;28;19954;-60
2022/07/14 06:58:20;;;;;;;;;;;23.40;88.20;;;;;;5094390;28;19920;-60
2022/07/14 07:00:45;;;;;;;;;;;23.40;88.20;;;;;;5094259;28;19908;-60
2022/07/14 07:03:11;;;;;;;;;;;23.50;88.20;;;;;;5093890;28;19999;-60
2022/07/14 07:08:23;;;;;;;;;;;23.40;88.10;;;;;;5094111;28;20300;-60
2022/07/14 07:10:49;;;;;;;;;;;23.50;88.20;;;;;;5076152;28;20011;-60
2022/07/14 07:13:14;;;;;;;;;;;23.50;88.20;;;;;;5094831;28;19934;-60
2022/07/14 07:15:40;;;;;;;;;;;23.40;88.10;;;;;;5094355;28;19908;-60
2022/07/14 07:18:06;;;;;;;;;;;23.40;88.20;;;;;;5093842;28;20371;-60
2022/07/14 07:20:33;;;;;;;;;;;23.40;88.20;;;;;;5094594;28;19915;-60
2022/07/14 07:22:58;;;;;;;;;;;23.40;88.20;;;;;;5076116;28;19998;-60
2022/07/14 07:25:24;;;;;;;;;;;23.40;88.20;;;;;;5093935;28;20370;-60
2022/07/14 07:27:49;;;;;;;;;;;23.40;88.10;;;;;;5094018;28;19962;-60
2022/07/14 07:30:14;;;;;;;;;;;23.50;88.20;;;;;;5093803;28;19942;-60
2022/07/14 07:32:40;;;;;;;;;;;23.50;88.20;;;;;;5093702;28;19908;-60
2022/07/14 07:35:06;;;;;;;;;;;23.50;88.20;;;;;;5093820;28;19908;-59
2022/07/14 07:37:31;;;;;;;;;;;23.50;88.20;;;;;;5093989;28;19908;-59
2022/07/14 07:39:58;;;;;;;;;;;23.50;88.20;;;;;;5094029;28;19912;-59
2022/07/14 07:42:23;;;;;;;;;;;23.50;88.30;;;;;;5093619;28;19915;-59
2022/07/14 07:44:49;;;;;;;;;;;23.50;88.30;;;;;;5093631;28;20263;-59
2022/07/14 07:47:15;;;;;;;;;;;23.50;88.30;;;;;;5093906;28;20018;-59
2022/07/14 07:49:41;;;;;;;;;;;23.50;88.20;;;;;;5093674;28;19912;-59
2022/07/14 07:52:06;;;;;;;;;;;23.50;88.20;;;;;;5093808;28;19931;-59
2022/07/14 07:54:32;;;;;;;;;;;23.50;88.20;;;;;;5093834;28;19908;-59
2022/07/14 07:56:59;;;;;;;;;;;23.50;88.20;;;;;;5093482;28;19912;-59
2022/07/14 07:59:25;;;;;;;;;;;23.50;88.20;;;;;;5092984;28;19927;-59
2022/07/14 08:01:51;;;;;;;;;;;23.50;88.20;;;;;;5093669;28;19909;-60
2022/07/14 08:04:16;;;;;;;;;;;23.50;88.20;;;;;;5093665;28;20366;-59
2022/07/14 08:06:42;;;;;;;;;;;23.50;88.20;;;;;;5097903;28;20346;-59
2022/07/14 08:09:11;;;;;;;;;;;23.50;88.20;;;;;;5097810;28;20041;-59
2022/07/14 08:11:37;;;;;;;;;;;23.50;88.20;;;;;;5097753;28;20267;-59
2022/07/14 08:14:03;;;;;;;;;;;23.50;88.20;;;;;;5079794;28;19908;-59
2022/07/14 08:16:28;;;;;;;;;;;23.50;88.20;;;;;;5097411;28;20381;-59
2022/07/14 08:18:54;;;;;;;;;;;23.50;88.10;;;;;;5097356;28;19908;-59
2022/07/14 08:21:19;;;;;;;;;;;23.50;88.20;;;;;;5097408;28;19908;-59
2022/07/14 08:23:44;;;;;;;;;;;23.50;88.10;;;;;;5097817;28;19908;-59
2022/07/14 08:26:10;;;;;;;;;;;23.50;88.10;;;;;;5079098;28;19958;-59
2022/07/14 08:28:36;;;;;;;;;;;23.50;88.10;;;;;;5097595;28;19912;-59
2022/07/14 08:31:01;;;;;;;;;;;23.50;88.10;;;;;;5097456;28;19908;-59
2022/07/14 08:33:27;;;;;;;;;;;23.60;88.20;;;;;;5097312;28;19912;-59
2022/07/14 08:35:52;;;;;;;;;;;23.60;88.20;;;;;;5079019;28;19908;-59
2022/07/14 08:38:18;;;;;;;;;;;23.50;88.10;;;;;;5097077;28;19995;-59
2022/07/14 08:40:43;;;;;;;;;;;23.50;88.10;;;;;;5097320;28;19908;-59
2022/07/14 08:43:10;;;;;;;;;;;23.60;88.20;;;;;;5097241;28;19954;-59
2022/07/14 08:45:39;;;;;;;;;;;23.50;88.10;;;;;;5097324;28;19912;-59
2022/07/14 08:48:04;;;;;;;;;;;23.50;88.10;;;;;;5097103;28;19916;-59
2022/07/14 08:50:30;;;;;;;;;;;23.50;87.80;;;;;;5096997;28;20003;-59
2022/07/14 08:52:55;;;;;;;;;;;23.50;88.00;;;;;;5096776;28;19908;-59
2022/07/14 08:55:21;;;;;;;;;;;23.60;88.10;;;;;;5097264;28;19908;-59
2022/07/14 08:57:46;;;;;;;;;;;23.60;88.10;;;;;;5096524;28;19978;-59
2022/07/14 09:00:14;;;;;;;;;;;23.60;88.10;;;;;;5077896;28;19915;-59
2022/07/14 09:02:41;;;;;;;;;;;23.60;88.10;;;;;;5095300;28;19915;-59
2022/07/14 09:05:06;;;;;;;;;;;23.60;88.10;;;;;;5095636;28;19915;-59
2022/07/14 09:07:41;;;;;;;;;;;23.60;88.10;;;;;;5095509;28;19912;-59
2022/07/14 09:10:08;;;;;;;;;;;23.60;88.10;;;;;;5095343;28;19912;-59
2022/07/14 09:12:33;;;;;;;;;;;23.50;88.10;;;;;;5095399;28;19916;-60
2022/07/14 09:17:55;;;;;;;;;;;23.60;88.10;;;;;;5095505;28;19931;-60
2022/07/14 09:20:21;;;;;;;;;;;23.60;88.10;;;;;;5077088;28;19916;-60
2022/07/14 09:22:47;;;;;;;;;;;23.60;88.10;;;;;;5094954;28;19915;-60
2022/07/14 09:25:17;;;;;;;;;;;23.50;88.10;;;;;;5095101;28;19911;-59
2022/07/14 09:27:45;;;;;;;;;;;23.50;88.10;;;;;;5094883;28;20369;-60
2022/07/14 09:30:11;;;;;;;;;;;23.60;88.10;;;;;;5094926;28;19912;-60
2022/07/14 09:32:56;;;;;;;;;;;23.60;88.10;;;;;;5095068;28;20306;-60
2022/07/14 09:35:26;;;;;;;;;;;23.60;88.10;;;;;;5095104;28;19908;-60
2022/07/14 09:37:52;;;;;;;;;;;23.60;88.20;;;;;;5094738;28;19908;-60
2022/07/14 09:40:22;;;;;;;;;;;23.60;88.10;;;;;;5094943;28;20364;-59
2022/07/14 09:42:50;;;;;;;;;;;23.60;88.10;;;;;;5095352;28;19969;-59
2022/07/14 09:45:17;;;;;;;;;;;23.60;88.10;;;;;;5094710;28;19981;-59
2022/07/14 09:47:55;;;;;;;;;;;23.60;88.00;;;;;;5094659;28;19997;-59
2022/07/14 09:50:32;;;;;;;;;;;23.60;88.00;;;;;;5094801;28;19932;-59
2022/07/14 09:52:58;;;;;;;;;;;23.60;88.00;;;;;;5076668;28;19916;-60
2022/07/14 09:55:23;;;;;;;;;;;23.60;88.10;;;;;;5076362;28;19951;-59
2022/07/14 09:57:49;;;;;;;;;;;23.60;88.10;;;;;;5011283;28;1739162;-60
2022/07/14 10:00:19;;;;;;;;;;;23.60;88.10;;;;;;5075569;28;19919;-60
2022/07/14 10:02:45;;;;;;;;;;;23.60;88.00;;;;;;5075795;28;19912;-60
2022/07/14 10:05:12;;;;;;;;;;;23.60;88.00;;;;;;5074908;28;20278;-60
2022/07/14 10:07:38;;;;;;;;;;;23.60;88.00;;;;;;5074635;28;19928;-59
2022/07/14 10:10:15;;;;;;;;;;;23.60;88.00;;;;;;5075373;28;20233;-59
2022/07/14 10:12:41;;;;;;;;;;;23.60;88.00;;;;;;5075084;28;19909;-59
2022/07/14 10:15:07;;;;;;;;;;;23.60;88.00;;;;;;5075060;28;19962;-59
2022/07/14 10:17:34;;;;;;;;;;;23.60;88.00;;;;;;5075064;28;19913;-59
2022/07/14 10:20:01;;;;;;;;;;;23.60;88.00;;;;;;5075106;28;20003;-59
2022/07/14 10:22:28;;;;;;;;;;;23.60;88.00;;;;;;5073763;28;19914;-59
2022/07/14 10:24:54;;;;;;;;;;;23.60;88.00;;;;;;5074840;28;19940;-59
2022/07/14 10:27:19;;;;;;;;;;;23.60;88.00;;;;;;5074056;28;19963;-59
2022/07/14 10:29:49;;;;;;;;;;;23.60;88.00;;;;;;5074433;28;20350;-59
2022/07/14 10:32:20;;;;;;;;;;;23.60;87.90;;;;;;5074843;28;19961;-59
2022/07/14 10:35:00;;;;;;;;;;;23.60;87.90;;;;;;5074826;28;19908;-59
2022/07/14 10:37:26;;;;;;;;;;;23.60;88.00;;;;;;5074853;28;19916;-59
2022/07/14 10:40:07;;;;;;;;;;;23.60;88.00;;;;;;5074576;28;19908;-59
2022/07/14 10:42:41;;;;;;;;;;;23.60;88.00;;;;;;5074461;28;19913;-59
2022/07/14 10:45:07;;;;;;;;;;;23.60;87.90;;;;;;5073574;28;19916;-59
2022/07/14 10:47:42;;;;;;;;;;;23.70;87.80;;;;;;5074612;28;19916;-59
2022/07/14 10:50:09;;;;;;;;;;;23.70;87.70;;;;;;5074702;28;19936;-59
2022/07/14 10:52:36;;;;;;;;;;;23.70;87.80;;;;;;5075035;28;19914;-59
2022/07/14 10:55:15;;;;;;;;;;;23.70;87.80;;;;;;5074497;28;19908;-59
2022/07/14 10:57:58;;;;;;;;;;;23.70;87.80;;;;;;5078209;28;19920;-59
2022/07/14 11:00:47;;;;;;;;;;;23.70;87.90;;;;;;5094445;28;19909;-59
2022/07/14 11:03:26;;;;;;;;;;;23.70;87.80;;;;;;5068741;28;19953;-59
2022/07/14 11:06:03;;;;;;;;;;;23.70;87.90;;;;;;5076350;28;20266;-59
2022/07/14 11:08:28;;;;;;;;;;;23.70;87.70;;;;;;5094304;28;19912;-59
2022/07/14 11:10:55;;;;;;;;;;;23.70;87.50;;;;;;5094093;28;19935;-59
2022/07/14 11:13:21;;;;;;;;;;;23.70;87.50;;;;;;5094366;28;19908;-59
2022/07/14 11:15:54;;;;;;;;;;;23.70;87.60;;;;;;5093911;28;19914;-59
2022/07/14 11:18:26;;;;;;;;;;;23.70;87.70;;;;;;5094210;28;19908;-59
2022/07/14 11:21:06;;;;;;;;;;;23.70;87.70;;;;;;5094239;28;19908;-59
2022/07/14 11:23:33;;;;;;;;;;;23.70;87.70;;;;;;5093917;28;20227;-59
2022/07/14 11:26:06;;;;;;;;;;;23.70;87.60;;;;;;5094547;28;20273;-59
2022/07/14 11:28:32;;;;;;;;;;;23.70;87.70;;;;;;5093836;28;19934;-59
2022/07/14 11:31:16;;;;;;;;;;;23.70;87.70;;;;;;5094421;28;19916;-59
2022/07/14 11:36:28;;;;;;;;;;;23.70;87.60;;;;;;5094189;28;20001;-60
2022/07/14 11:39:12;;;;;;;;;;;23.70;87.60;;;;;;5093568;28;19909;-60
2022/07/14 11:42:04;;;;;;;;;;;23.70;87.60;;;;;;5093740;28;19912;-59
2022/07/14 11:44:35;;;;;;;;;;;23.70;87.60;;;;;;5070343;28;20262;-59
2022/07/14 11:47:21;;;;;;;;;;;23.70;87.60;;;;;;5093584;28;19972;-59
2022/07/14 11:49:51;;;;;;;;;;;23.70;87.50;;;;;;5074843;28;20436;-59
2022/07/14 11:52:23;;;;;;;;;;;23.70;87.50;;;;;;5094025;28;20484;-59
2022/07/14 11:54:51;;;;;;;;;;;23.70;87.50;;;;;;5093468;28;19915;-59
2022/07/14 11:57:17;;;;;;;;;;;23.70;87.50;;;;;;5093246;28;20247;-59
2022/07/14 11:59:42;;;;;;;;;;;23.70;87.60;;;;;;5093563;28;19908;-59
2022/07/14 12:02:14;;;;;;;;;;;23.70;87.60;;;;;;5093483;28;20385;-59
2022/07/14 12:04:49;;;;;;;;;;;23.70;87.60;;;;;;5075772;28;19908;-59
2022/07/14 12:07:14;;;;;;;;;;;23.80;87.60;;;;;;5075581;28;19912;-59
2022/07/14 12:09:40;;;;;;;;;;;23.70;87.50;;;;;;5093455;28;19919;-59
2022/07/14 12:12:06;;;;;;;;;;;23.70;87.50;;;;;;5093149;28;19999;-59
2022/07/14 12:14:32;;;;;;;;;;;23.80;87.60;;;;;;5093367;28;19937;-59
2022/07/14 12:16:58;;;;;;;;;;;23.80;87.50;;;;;;5075450;28;19912;-59
2022/07/14 12:19:30;;;;;;;;;;;23.80;87.50;;;;;;5093431;28;19940;-59
2022/07/14 12:21:59;;;;;;;;;;;23.80;87.60;;;;;;5093367;28;19962;-59
2022/07/14 12:24:25;;;;;;;;;;;23.80;87.60;;;;;;5074988;28;19908;-59
2022/07/14 12:26:50;;;;;;;;;;;23.80;87.60;;;;;;5075353;28;19966;-59
2022/07/14 12:29:16;;;;;;;;;;;23.80;87.50;;;;;;5093428;28;19995;-59
2022/07/14 12:31:42;;;;;;;;;;;23.80;87.30;;;;;;5075246;28;19908;-59
2022/07/14 12:34:08;;;;;;;;;;;23.80;87.40;;;;;;5093052;28;20011;-60
2022/07/14 12:36:34;;;;;;;;;;;23.80;87.40;;;;;;5093359;28;19915;-59
2022/07/14 12:39:02;;;;;;;;;;;23.80;87.30;;;;;;5093062;28;19908;-59
2022/07/14 12:41:27;;;;;;;;;;;23.80;87.40;;;;;;5093108;28;20366;-59
2022/07/14 12:43:56;;;;;;;;;;;23.80;87.40;;;;;;5075194;28;20058;-59
2022/07/14 12:46:23;;;;;;;;;;;23.80;87.20;;;;;;5093112;28;19908;-59
2022/07/14 12:48:48;;;;;;;;;;;23.80;87.10;;;;;;5093271;28;20274;-58
2022/07/14 12:51:21;;;;;;;;;;;23.80;87.30;;;;;;5094910;28;19908;-59
2022/07/14 12:53:59;;;;;;;;;;;23.80;87.20;;;;;;5096999;28;19934;-59
2022/07/14 12:56:29;;;;;;;;;;;23.80;87.20;;;;;;5078614;28;19952;-59
2022/07/14 12:58:59;;;;;;;;;;;23.80;87.30;;;;;;5078403;28;19920;-59
2022/07/14 13:01:25;;;;;;;;;;;23.80;87.30;;;;;;5096522;28;19956;-59
2022/07/14 13:03:55;;;;;;;;;;;23.80;87.40;;;;;;5096653;28;19908;-59
2022/07/14 13:06:21;;;;;;;;;;;23.80;87.30;;;;;;5078439;28;19915;-59
2022/07/14 13:08:46;;;;;;;;;;;23.80;87.30;;;;;;5078408;28;19912;-58
2022/07/14 13:11:12;;;;;;;;;;;23.80;87.20;;;;;;5096076;28;19947;-60
2022/07/14 13:13:42;;;;;;;;;;;23.80;87.20;;;;;;5078319;28;19912;-60
2022/07/14 13:16:34;;;;;;;;;;;23.80;87.10;;;;;;5096394;28;19912;-59
2022/07/14 13:19:00;;;;;;;;;;;23.80;87.10;;;;;;5093085;28;19915;-60
2022/07/14 13:21:45;;;;;;;;;;;23.80;87.00;;;;;;5096336;28;19908;-60
2022/07/14 13:24:11;;;;;;;;;;;23.80;87.00;;;;;;5078323;28;19951;-59
2022/07/14 13:26:37;;;;;;;;;;;23.80;86.80;;;;;;5096337;28;19908;-60
2022/07/14 13:29:03;;;;;;;;;;;23.90;86.90;;;;;;5095847;28;19912;-60
2022/07/14 13:31:28;;;;;;;;;;;23.80;86.80;;;;;;5096053;28;20386;-59
2022/07/14 13:33:58;;;;;;;;;;;23.80;86.80;;;;;;5096165;28;19961;-60
2022/07/14 13:36:24;;;;;;;;;;;23.80;87.00;;;;;;5096091;28;20244;-60
2022/07/14 13:38:50;;;;;;;;;;;23.90;86.80;;;;;;5077961;28;20420;-60
2022/07/14 13:41:16;;;;;;;;;;;23.90;86.90;;;;;;5096397;28;19908;-60
2022/07/14 13:43:42;;;;;;;;;;;23.90;86.80;;;;;;5078040;28;19908;-60
2022/07/14 13:46:08;;;;;;;;;;;23.90;86.70;;;;;;5077845;28;19912;-60
2022/07/14 13:48:34;;;;;;;;;;;23.80;86.70;;;;;;5095608;28;19912;-60
2022/07/14 13:53:44;;;;;;;;;;;23.90;86.80;;;;;;5095751;28;19915;-60
2022/07/14 13:56:10;;;;;;;;;;;23.90;86.70;;;;;;5095617;28;20347;-60
2022/07/14 13:58:35;;;;;;;;;;;23.90;86.70;;;;;;5077608;28;19927;-60
2022/07/14 14:01:01;;;;;;;;;;;23.80;86.70;;;;;;5095764;28;19947;-60
2022/07/14 14:03:27;;;;;;;;;;;23.90;86.80;;;;;;5076352;28;19916;-60
2022/07/14 14:05:53;;;;;;;;;;;23.90;86.70;;;;;;5077485;28;19908;-60
2022/07/14 14:08:19;;;;;;;;;;;23.90;86.60;;;;;;5095350;28;19912;-60
2022/07/14 14:10:44;;;;;;;;;;;23.90;86.70;;;;;;5095267;28;19919;-60
2022/07/14 14:13:10;;;;;;;;;;;23.90;86.60;;;;;;5095028;28;20015;-60
2022/07/14 14:15:35;;;;;;;;;;;23.90;86.60;;;;;;5095592;28;19958;-60
2022/07/14 14:18:01;;;;;;;;;;;23.90;86.70;;;;;;5094594;28;19943;-60
2022/07/14 14:20:27;;;;;;;;;;;23.90;86.70;;;;;;5095175;28;19915;-60
2022/07/14 14:22:52;;;;;;;;;;;23.90;86.70;;;;;;5095047;28;19966;-60
2022/07/14 14:25:18;;;;;;;;;;;23.90;86.70;;;;;;5094716;28;19912;-60
2022/07/14 14:27:43;;;;;;;;;;;23.90;86.60;;;;;;5094782;28;20362;-60
2022/07/14 14:30:09;;;;;;;;;;;23.90;86.70;;;;;;5095498;28;19978;-60
2022/07/14 14:32:35;;;;;;;;;;;23.90;86.70;;;;;;5095122;28;19913;-59
2022/07/14 14:35:00;;;;;;;;;;;23.90;86.60;;;;;;5094737;28;19908;-59